Faa'a International Airport

NTAA · Îles du Vent, French Polynesia

METAR NTAA · Faa'a International Airport

21 四月 23:30 LT
16m
罗盘
风向 的 Faa'a International Airport 4/22
风: 2 kt, 1 beaufort

1 kt

2 kt
改变
0 ft 1.000 2.000 3.000 4.000 5.000
没有观察到明显的云
METAR NTAA 220930Z AUTO VRB02KT //// R04///// // NSC 26/22 Q1011

METAR Faa'a International Airport - NTAA/PPT

Faa'a International Airport是,French Polynesia中的大型机场。 该机场位于纬度-17,55370和经度-149,60700。 该机场有一条跑道: 4/22. 本场的ICAO机场代码为NTAA。 该机场的IATA代码为PPT。 机场在Tahiti FIR中。

该航空气象观测是针对Faa'a International Airport在2024年4月21日 23:30, 当地时间进行的。

机场观察

可变方向的风很小或没有风。

温度和风寒是26 °C。 露点为22 °C,相对湿度为79%。 海平面上的气压为1011 hPa (QNH)。

白天

今天,太阳从06:09升起,在17:44降落。 这适用于Faa'a International Airport,世界夏令时可能有所不同。 当地时间与世界标准时间之间的时差为-10 小时。 夏令时目前正在进行中。

公司介绍

在这个机场,你可以找到飞行俱乐部。 本场上唯一已知的公司是Union Tahitienne Aeronautique - Ass Aero UTA-ADF。

体会

到Vliegles.nl去找飞行课程,跳伞和其他飞行体验。 浏览页面,了解Faa'a International Airport附近所有可用的活动。 你也可以使用搜索功能来寻找你所在地附近的特定飞行课程、跳伞或其他飞行体验。

跑道

Id 标题 侧风 逆风 侧风 %
4/22 053°-233° 2 kt 1 kt 80 %

逆风成分最大的方向会被突出显示,并用于横风计算。 这并不一定意味着这个方向在使用。

乌云

- NSC 没有观察到明显的云

温度 & 天气

温度 26 °C
露点 22 °C
相对湿度 79%
Kp-index 1 (0-9)

白天

日出
06:09 (6:23)
中午
11:56
日落
17:44

小工具

你想在你的网站上有一个关于Faa'a International Airport的当前航空天气(METAR)的小部件吗?

显示HTML代码
报告变更